sensor_id;sensor_type;location;lat;lon;timestamp;P1;durP1;ratioP1;P2;durP2;ratioP2
15679;SDS011;15488;48.114;11.532;2023-03-24T00:02:08;2.60;;;2.40;;
15679;SDS011;15488;48.114;11.532;2023-03-24T00:04:37;9.43;;;8.23;;
15679;SDS011;15488;48.114;11.532;2023-03-24T00:07:08;7.90;;;4.90;;
15679;SDS011;15488;48.114;11.532;2023-03-24T00:09:39;3.27;;;2.97;;
15679;SDS011;15488;48.114;11.532;2023-03-24T00:12:07;3.00;;;2.60;;
15679;SDS011;15488;48.114;11.532;2023-03-24T00:14:36;2.60;;;2.27;;
15679;SDS011;15488;48.114;11.532;2023-03-24T00:17:05;3.00;;;2.20;;
15679;SDS011;15488;48.114;11.532;2023-03-24T00:19:34;2.63;;;2.20;;
15679;SDS011;15488;48.114;11.532;2023-03-24T00:22:02;2.30;;;2.10;;
15679;SDS011;15488;48.114;11.532;2023-03-24T00:24:31;2.30;;;2.10;;
15679;SDS011;15488;48.114;11.532;2023-03-24T00:26:59;2.27;;;1.97;;
15679;SDS011;15488;48.114;11.532;2023-03-24T00:29:27;7.33;;;5.77;;
15679;SDS011;15488;48.114;11.532;2023-03-24T00:31:55;8.60;;;6.80;;
15679;SDS011;15488;48.114;11.532;2023-03-24T00:34:22;5.73;;;3.67;;
15679;SDS011;15488;48.114;11.532;2023-03-24T00:36:50;3.50;;;3.20;;
15679;SDS011;15488;48.114;11.532;2023-03-24T00:39:18;5.83;;;3.80;;
15679;SDS011;15488;48.114;11.532;2023-03-24T00:41:47;4.07;;;3.07;;
15679;SDS011;15488;48.114;11.532;2023-03-24T00:44:15;3.33;;;2.87;;
15679;SDS011;15488;48.114;11.532;2023-03-24T00:46:43;3.00;;;2.70;;
15679;SDS011;15488;48.114;11.532;2023-03-24T00:49:19;2.30;;;2.10;;
15679;SDS011;15488;48.114;11.532;2023-03-24T00:52:06;2.30;;;2.10;;
15679;SDS011;15488;48.114;11.532;2023-03-24T00:54:35;9.17;;;8.03;;
15679;SDS011;15488;48.114;11.532;2023-03-24T00:57:04;5.73;;;4.60;;
15679;SDS011;15488;48.114;11.532;2023-03-24T00:59:32;3.43;;;3.13;;
15679;SDS011;15488;48.114;11.532;2023-03-24T01:02:06;3.43;;;3.00;;
15679;SDS011;15488;48.114;11.532;2023-03-24T01:04:36;3.23;;;2.63;;
15679;SDS011;15488;48.114;11.532;2023-03-24T01:07:03;3.80;;;3.20;;
15679;SDS011;15488;48.114;11.532;2023-03-24T01:09:35;3.83;;;3.20;;
15679;SDS011;15488;48.114;11.532;2023-03-24T01:12:04;2.83;;;2.53;;
15679;SDS011;15488;48.114;11.532;2023-03-24T01:14:32;2.40;;;2.20;;
15679;SDS011;15488;48.114;11.532;2023-03-24T01:17:00;3.43;;;2.27;;
15679;SDS011;15488;48.114;11.532;2023-03-24T01:19:27;5.13;;;2.60;;
15679;SDS011;15488;48.114;11.532;2023-03-24T01:21:57;4.50;;;3.93;;
15679;SDS011;15488;48.114;11.532;2023-03-24T01:24:24;3.67;;;3.20;;
15679;SDS011;15488;48.114;11.532;2023-03-24T01:26:52;3.37;;;3.07;;
15679;SDS011;15488;48.114;11.532;2023-03-24T01:29:21;3.43;;;3.03;;
15679;SDS011;15488;48.114;11.532;2023-03-24T01:31:48;5.07;;;3.50;;
15679;SDS011;15488;48.114;11.532;2023-03-24T01:34:16;3.67;;;3.00;;
15679;SDS011;15488;48.114;11.532;2023-03-24T01:36:43;3.83;;;2.77;;
15679;SDS011;15488;48.114;11.532;2023-03-24T01:39:11;2.60;;;2.37;;
15679;SDS011;15488;48.114;11.532;2023-03-24T01:41:38;2.37;;;2.17;;
15679;SDS011;15488;48.114;11.532;2023-03-24T01:44:24;2.30;;;2.10;;
15679;SDS011;15488;48.114;11.532;2023-03-24T01:46:53;3.17;;;2.37;;
15679;SDS011;15488;48.114;11.532;2023-03-24T01:49:21;2.67;;;2.17;;
15679;SDS011;15488;48.114;11.532;2023-03-24T01:51:52;2.40;;;2.20;;
15679;SDS011;15488;48.114;11.532;2023-03-24T01:54:23;2.57;;;2.03;;
15679;SDS011;15488;48.114;11.532;2023-03-24T01:56:54;2.37;;;2.00;;
15679;SDS011;15488;48.114;11.532;2023-03-24T01:59:28;2.43;;;2.23;;
15679;SDS011;15488;48.114;11.532;2023-03-24T02:01:57;2.50;;;2.23;;
15679;SDS011;15488;48.114;11.532;2023-03-24T02:04:28;2.20;;;1.90;;
15679;SDS011;15488;48.114;11.532;2023-03-24T02:06:58;2.40;;;2.20;;
15679;SDS011;15488;48.114;11.532;2023-03-24T02:09:30;3.23;;;1.93;;
15679;SDS011;15488;48.114;11.532;2023-03-24T02:11:58;2.20;;;2.00;;
15679;SDS011;15488;48.114;11.532;2023-03-24T02:14:28;2.23;;;2.03;;
15679;SDS011;15488;48.114;11.532;2023-03-24T02:17:03;2.40;;;2.10;;
15679;SDS011;15488;48.114;11.532;2023-03-24T02:25:52;2.63;;;2.30;;
15679;SDS011;15488;48.114;11.532;2023-03-24T02:28:58;2.57;;;2.07;;
15679;SDS011;15488;48.114;11.532;2023-03-24T02:31:42;2.53;;;2.33;;
15679;SDS011;15488;48.114;11.532;2023-03-24T02:40:36;3.70;;;2.30;;
15679;SDS011;15488;48.114;11.532;2023-03-24T02:43:16;2.67;;;2.33;;
15679;SDS011;15488;48.114;11.532;2023-03-24T02:45:56;3.03;;;2.40;;
15679;SDS011;15488;48.114;11.532;2023-03-24T02:48:39;2.50;;;2.20;;
15679;SDS011;15488;48.114;11.532;2023-03-24T02:51:26;2.50;;;2.30;;
15679;SDS011;15488;48.114;11.532;2023-03-24T02:54:03;3.27;;;2.10;;
15679;SDS011;15488;48.114;11.532;2023-03-24T02:56:38;2.60;;;2.20;;
15679;SDS011;15488;48.114;11.532;2023-03-24T02:59:14;3.30;;;2.50;;
15679;SDS011;15488;48.114;11.532;2023-03-24T03:01:45;2.97;;;2.60;;
15679;SDS011;15488;48.114;11.532;2023-03-24T03:04:23;3.90;;;2.23;;
15679;SDS011;15488;48.114;11.532;2023-03-24T03:06:57;2.97;;;2.63;;
15679;SDS011;15488;48.114;11.532;2023-03-24T03:09:30;2.53;;;2.17;;
15679;SDS011;15488;48.114;11.532;2023-03-24T03:12:01;4.70;;;2.50;;
15679;SDS011;15488;48.114;11.532;2023-03-24T03:14:34;2.50;;;2.30;;
15679;SDS011;15488;48.114;11.532;2023-03-24T03:17:04;2.30;;;2.10;;
15679;SDS011;15488;48.114;11.532;2023-03-24T03:19:36;2.57;;;2.37;;
15679;SDS011;15488;48.114;11.532;2023-03-24T03:22:06;2.30;;;2.10;;
15679;SDS011;15488;48.114;11.532;2023-03-24T03:24:39;3.00;;;2.37;;
15679;SDS011;15488;48.114;11.532;2023-03-24T03:27:10;2.73;;;2.30;;
15679;SDS011;15488;48.114;11.532;2023-03-24T03:29:43;2.80;;;2.60;;
15679;SDS011;15488;48.114;11.532;2023-03-24T03:32:13;2.60;;;2.40;;
15679;SDS011;15488;48.114;11.532;2023-03-24T03:34:46;3.70;;;2.47;;
15679;SDS011;15488;48.114;11.532;2023-03-24T03:37:19;2.90;;;2.60;;
15679;SDS011;15488;48.114;11.532;2023-03-24T03:39:52;3.47;;;2.37;;
15679;SDS011;15488;48.114;11.532;2023-03-24T03:42:24;3.07;;;2.50;;
15679;SDS011;15488;48.114;11.532;2023-03-24T03:44:51;3.00;;;2.70;;
15679;SDS011;15488;48.114;11.532;2023-03-24T03:47:19;2.43;;;2.23;;
15679;SDS011;15488;48.114;11.532;2023-03-24T03:49:47;2.83;;;2.43;;
15679;SDS011;15488;48.114;11.532;2023-03-24T03:52:15;2.73;;;2.27;;
15679;SDS011;15488;48.114;11.532;2023-03-24T03:54:44;2.87;;;2.60;;
15679;SDS011;15488;48.114;11.532;2023-03-24T03:57:12;2.97;;;2.50;;
15679;SDS011;15488;48.114;11.532;2023-03-24T03:59:42;2.53;;;2.33;;
15679;SDS011;15488;48.114;11.532;2023-03-24T04:02:14;3.57;;;2.40;;
15679;SDS011;15488;48.114;11.532;2023-03-24T04:04:58;3.10;;;2.57;;
15679;SDS011;15488;48.114;11.532;2023-03-24T04:07:46;3.20;;;2.67;;
15679;SDS011;15488;48.114;11.532;2023-03-24T04:10:48;2.83;;;2.53;;
15679;SDS011;15488;48.114;11.532;2023-03-24T04:13:28;2.90;;;2.60;;
15679;SDS011;15488;48.114;11.532;2023-03-24T04:16:07;3.50;;;2.87;;
15679;SDS011;15488;48.114;11.532;2023-03-24T04:18:46;3.13;;;2.50;;
15679;SDS011;15488;48.114;11.532;2023-03-24T04:21:25;2.87;;;2.57;;
15679;SDS011;15488;48.114;11.532;2023-03-24T04:24:10;6.53;;;3.10;;
15679;SDS011;15488;48.114;11.532;2023-03-24T04:26:51;3.60;;;2.97;;
15679;SDS011;15488;48.114;11.532;2023-03-24T04:29:28;3.77;;;2.83;;
15679;SDS011;15488;48.114;11.532;2023-03-24T04:32:03;3.47;;;3.07;;
15679;SDS011;15488;48.114;11.532;2023-03-24T04:34:39;3.20;;;2.90;;
15679;SDS011;15488;48.114;11.532;2023-03-24T04:37:11;4.50;;;3.03;;
15679;SDS011;15488;48.114;11.532;2023-03-24T04:39:42;3.60;;;2.97;;
15679;SDS011;15488;48.114;11.532;2023-03-24T04:42:14;4.13;;;3.07;;
15679;SDS011;15488;48.114;11.532;2023-03-24T04:44:46;4.37;;;2.97;;
15679;SDS011;15488;48.114;11.532;2023-03-24T04:47:16;3.60;;;3.07;;
15679;SDS011;15488;48.114;11.532;2023-03-24T04:49:47;3.83;;;2.90;;
15679;SDS011;15488;48.114;11.532;2023-03-24T04:52:15;3.83;;;2.83;;
15679;SDS011;15488;48.114;11.532;2023-03-24T04:54:42;3.40;;;3.07;;
15679;SDS011;15488;48.114;11.532;2023-03-24T04:57:10;4.33;;;2.97;;
15679;SDS011;15488;48.114;11.532;2023-03-24T04:59:37;3.40;;;2.93;;
15679;SDS011;15488;48.114;11.532;2023-03-24T05:02:05;3.30;;;2.97;;
15679;SDS011;15488;48.114;11.532;2023-03-24T05:04:34;3.57;;;3.10;;
15679;SDS011;15488;48.114;11.532;2023-03-24T05:07:01;3.27;;;2.83;;
15679;SDS011;15488;48.114;11.532;2023-03-24T05:09:29;3.17;;;2.87;;
15679;SDS011;15488;48.114;11.532;2023-03-24T05:11:57;3.50;;;3.20;;
15679;SDS011;15488;48.114;11.532;2023-03-24T05:14:25;3.17;;;2.87;;
15679;SDS011;15488;48.114;11.532;2023-03-24T05:16:53;3.30;;;3.00;;
15679;SDS011;15488;48.114;11.532;2023-03-24T05:19:20;3.60;;;3.30;;
15679;SDS011;15488;48.114;11.532;2023-03-24T05:21:49;4.50;;;3.40;;
15679;SDS011;15488;48.114;11.532;2023-03-24T05:24:18;4.57;;;3.47;;
15679;SDS011;15488;48.114;11.532;2023-03-24T05:26:46;5.77;;;3.53;;
15679;SDS011;15488;48.114;11.532;2023-03-24T05:29:13;4.00;;;3.43;;
15679;SDS011;15488;48.114;11.532;2023-03-24T05:31:41;4.20;;;3.03;;
15679;SDS011;15488;48.114;11.532;2023-03-24T05:34:09;4.07;;;2.97;;
15679;SDS011;15488;48.114;11.532;2023-03-24T05:36:36;4.07;;;3.00;;
15679;SDS011;15488;48.114;11.532;2023-03-24T05:39:05;3.53;;;3.23;;
15679;SDS011;15488;48.114;11.532;2023-03-24T05:41:33;3.10;;;2.80;;
15679;SDS011;15488;48.114;11.532;2023-03-24T05:44:00;3.40;;;3.10;;
15679;SDS011;15488;48.114;11.532;2023-03-24T05:46:27;3.73;;;3.00;;
15679;SDS011;15488;48.114;11.532;2023-03-24T05:48:55;3.87;;;2.90;;
15679;SDS011;15488;48.114;11.532;2023-03-24T05:51:22;3.43;;;2.83;;
15679;SDS011;15488;48.114;11.532;2023-03-24T05:53:53;4.30;;;3.00;;
15679;SDS011;15488;48.114;11.532;2023-03-24T05:56:21;3.97;;;2.87;;
15679;SDS011;15488;48.114;11.532;2023-03-24T05:58:49;3.57;;;2.80;;
15679;SDS011;15488;48.114;11.532;2023-03-24T06:01:16;3.30;;;2.97;;
15679;SDS011;15488;48.114;11.532;2023-03-24T06:03:44;5.47;;;3.73;;
15679;SDS011;15488;48.114;11.532;2023-03-24T06:06:13;4.17;;;3.30;;
15679;SDS011;15488;48.114;11.532;2023-03-24T06:08:40;2.83;;;2.63;;
15679;SDS011;15488;48.114;11.532;2023-03-24T06:11:09;3.50;;;3.20;;
15679;SDS011;15488;48.114;11.532;2023-03-24T06:13:38;4.00;;;3.20;;
15679;SDS011;15488;48.114;11.532;2023-03-24T06:16:06;6.00;;;4.37;;
15679;SDS011;15488;48.114;11.532;2023-03-24T06:18:34;5.00;;;3.80;;
15679;SDS011;15488;48.114;11.532;2023-03-24T06:21:04;4.63;;;3.60;;
15679;SDS011;15488;48.114;11.532;2023-03-24T06:23:32;5.33;;;3.80;;
15679;SDS011;15488;48.114;11.532;2023-03-24T06:25:59;5.20;;;4.03;;
15679;SDS011;15488;48.114;11.532;2023-03-24T06:28:27;4.30;;;3.57;;
15679;SDS011;15488;48.114;11.532;2023-03-24T06:30:59;5.27;;;4.00;;
15679;SDS011;15488;48.114;11.532;2023-03-24T06:33:29;4.33;;;3.93;;
15679;SDS011;15488;48.114;11.532;2023-03-24T06:35:57;6.33;;;4.30;;
15679;SDS011;15488;48.114;11.532;2023-03-24T06:38:25;8.23;;;6.13;;
15679;SDS011;15488;48.114;11.532;2023-03-24T06:40:53;6.97;;;5.97;;
15679;SDS011;15488;48.114;11.532;2023-03-24T06:43:24;7.60;;;6.10;;
15679;SDS011;15488;48.114;11.532;2023-03-24T06:45:52;7.50;;;5.90;;
15679;SDS011;15488;48.114;11.532;2023-03-24T06:48:21;7.37;;;5.03;;
15679;SDS011;15488;48.114;11.532;2023-03-24T06:50:50;6.47;;;4.43;;
15679;SDS011;15488;48.114;11.532;2023-03-24T06:53:18;5.07;;;4.17;;
15679;SDS011;15488;48.114;11.532;2023-03-24T06:55:46;5.33;;;4.30;;
15679;SDS011;15488;48.114;11.532;2023-03-24T06:58:14;6.27;;;4.40;;
15679;SDS011;15488;48.114;11.532;2023-03-24T07:00:41;8.47;;;5.60;;
15679;SDS011;15488;48.114;11.532;2023-03-24T07:03:10;8.00;;;5.00;;
15679;SDS011;15488;48.114;11.532;2023-03-24T07:05:39;4.73;;;4.00;;
15679;SDS011;15488;48.114;11.532;2023-03-24T07:08:08;5.30;;;4.27;;
15679;SDS011;15488;48.114;11.532;2023-03-24T07:10:37;5.90;;;4.00;;
15679;SDS011;15488;48.114;11.532;2023-03-24T07:13:05;6.30;;;4.33;;
15679;SDS011;15488;48.114;11.532;2023-03-24T07:15:33;5.50;;;4.23;;
15679;SDS011;15488;48.114;11.532;2023-03-24T07:18:00;6.00;;;4.30;;
15679;SDS011;15488;48.114;11.532;2023-03-24T07:20:28;5.73;;;4.27;;
15679;SDS011;15488;48.114;11.532;2023-03-24T07:22:57;5.07;;;3.97;;
15679;SDS011;15488;48.114;11.532;2023-03-24T07:25:24;5.30;;;4.17;;
15679;SDS011;15488;48.114;11.532;2023-03-24T07:27:52;7.83;;;4.37;;
15679;SDS011;15488;48.114;11.532;2023-03-24T07:30:20;5.67;;;4.33;;
15679;SDS011;15488;48.114;11.532;2023-03-24T07:32:48;5.60;;;4.20;;
15679;SDS011;15488;48.114;11.532;2023-03-24T07:35:18;6.67;;;4.83;;
15679;SDS011;15488;48.114;11.532;2023-03-24T07:37:46;5.17;;;4.57;;
15679;SDS011;15488;48.114;11.532;2023-03-24T07:40:15;6.03;;;4.70;;
15679;SDS011;15488;48.114;11.532;2023-03-24T07:42:43;6.90;;;4.37;;
15679;SDS011;15488;48.114;11.532;2023-03-24T07:45:11;5.67;;;4.10;;
15679;SDS011;15488;48.114;11.532;2023-03-24T07:47:41;6.20;;;4.30;;
15679;SDS011;15488;48.114;11.532;2023-03-24T07:50:10;6.10;;;4.13;;
15679;SDS011;15488;48.114;11.532;2023-03-24T07:52:39;4.60;;;4.13;;
15679;SDS011;15488;48.114;11.532;2023-03-24T07:55:08;7.57;;;4.47;;
15679;SDS011;15488;48.114;11.532;2023-03-24T07:57:38;3.90;;;3.40;;
15679;SDS011;15488;48.114;11.532;2023-03-24T08:00:07;3.53;;;3.23;;
15679;SDS011;15488;48.114;11.532;2023-03-24T08:02:40;3.33;;;3.03;;
15679;SDS011;15488;48.114;11.532;2023-03-24T08:05:07;4.37;;;2.70;;
15679;SDS011;15488;48.114;11.532;2023-03-24T08:07:38;3.30;;;3.00;;
15679;SDS011;15488;48.114;11.532;2023-03-24T08:10:07;2.60;;;2.40;;
15679;SDS011;15488;48.114;11.532;2023-03-24T08:12:38;3.87;;;2.57;;
15679;SDS011;15488;48.114;11.532;2023-03-24T08:15:06;3.73;;;2.50;;
15679;SDS011;15488;48.114;11.532;2023-03-24T08:17:34;2.53;;;2.33;;
15679;SDS011;15488;48.114;11.532;2023-03-24T08:20:03;3.77;;;2.60;;
15679;SDS011;15488;48.114;11.532;2023-03-24T08:22:39;3.80;;;2.77;;
15679;SDS011;15488;48.114;11.532;2023-03-24T08:25:07;7.33;;;5.40;;
15679;SDS011;15488;48.114;11.532;2023-03-24T08:27:37;3.80;;;3.27;;
15679;SDS011;15488;48.114;11.532;2023-03-24T08:30:08;3.43;;;3.10;;
15679;SDS011;15488;48.114;11.532;2023-03-24T08:32:39;4.10;;;2.67;;
15679;SDS011;15488;48.114;11.532;2023-03-24T08:35:10;5.10;;;3.27;;
15679;SDS011;15488;48.114;11.532;2023-03-24T08:37:39;2.43;;;2.23;;
15679;SDS011;15488;48.114;11.532;2023-03-24T08:40:07;3.53;;;2.70;;
15679;SDS011;15488;48.114;11.532;2023-03-24T08:42:39;2.43;;;2.20;;
15679;SDS011;15488;48.114;11.532;2023-03-24T08:45:07;3.20;;;2.40;;
15679;SDS011;15488;48.114;11.532;2023-03-24T08:47:36;5.50;;;3.47;;
15679;SDS011;15488;48.114;11.532;2023-03-24T08:50:04;4.43;;;3.03;;
15679;SDS011;15488;48.114;11.532;2023-03-24T08:52:33;4.53;;;2.90;;
15679;SDS011;15488;48.114;11.532;2023-03-24T08:55:01;3.07;;;2.83;;
15679;SDS011;15488;48.114;11.532;2023-03-24T08:57:28;4.33;;;3.00;;
15679;SDS011;15488;48.114;11.532;2023-03-24T08:59:57;4.70;;;3.07;;
15679;SDS011;15488;48.114;11.532;2023-03-24T09:02:25;3.43;;;2.60;;
15679;SDS011;15488;48.114;11.532;2023-03-24T09:04:52;2.70;;;2.47;;
15679;SDS011;15488;48.114;11.532;2023-03-24T09:07:20;4.90;;;3.03;;
15679;SDS011;15488;48.114;11.532;2023-03-24T09:09:47;2.67;;;2.47;;
15679;SDS011;15488;48.114;11.532;2023-03-24T09:12:15;2.80;;;2.20;;
15679;SDS011;15488;48.114;11.532;2023-03-24T09:14:46;2.57;;;2.37;;
15679;SDS011;15488;48.114;11.532;2023-03-24T09:17:15;3.17;;;2.20;;
15679;SDS011;15488;48.114;11.532;2023-03-24T09:19:43;2.93;;;2.40;;
15679;SDS011;15488;48.114;11.532;2023-03-24T09:22:11;6.17;;;2.97;;
15679;SDS011;15488;48.114;11.532;2023-03-24T09:24:38;2.70;;;2.47;;
15679;SDS011;15488;48.114;11.532;2023-03-24T09:27:06;2.50;;;2.30;;
15679;SDS011;15488;48.114;11.532;2023-03-24T09:29:34;2.73;;;2.23;;
15679;SDS011;15488;48.114;11.532;2023-03-24T09:32:01;2.50;;;2.20;;
15679;SDS011;15488;48.114;11.532;2023-03-24T09:34:30;2.27;;;2.07;;
15679;SDS011;15488;48.114;11.532;2023-03-24T09:36:57;2.30;;;1.83;;
15679;SDS011;15488;48.114;11.532;2023-03-24T09:39:25;2.20;;;1.83;;
15679;SDS011;15488;48.114;11.532;2023-03-24T09:41:53;2.73;;;2.00;;
15679;SDS011;15488;48.114;11.532;2023-03-24T09:44:22;2.00;;;1.80;;
15679;SDS011;15488;48.114;11.532;2023-03-24T09:46:53;2.10;;;1.90;;
15679;SDS011;15488;48.114;11.532;2023-03-24T09:49:27;2.93;;;2.50;;
15679;SDS011;15488;48.114;11.532;2023-03-24T09:52:01;2.20;;;1.80;;
15679;SDS011;15488;48.114;11.532;2023-03-24T09:54:33;2.00;;;1.80;;
15679;SDS011;15488;48.114;11.532;2023-03-24T09:57:08;2.53;;;1.93;;
15679;SDS011;15488;48.114;11.532;2023-03-24T09:59:41;2.23;;;2.03;;
15679;SDS011;15488;48.114;11.532;2023-03-24T10:02:09;2.30;;;2.10;;
15679;SDS011;15488;48.114;11.532;2023-03-24T10:04:40;2.30;;;2.10;;
15679;SDS011;15488;48.114;11.532;2023-03-24T10:07:08;2.17;;;1.97;;
15679;SDS011;15488;48.114;11.532;2023-03-24T10:09:42;3.13;;;2.37;;
15679;SDS011;15488;48.114;11.532;2023-03-24T10:12:16;2.73;;;2.03;;
15679;SDS011;15488;48.114;11.532;2023-03-24T10:14:55;3.07;;;2.10;;
15679;SDS011;15488;48.114;11.532;2023-03-24T10:17:35;2.93;;;2.60;;
15679;SDS011;15488;48.114;11.532;2023-03-24T10:20:13;2.33;;;2.10;;
15679;SDS011;15488;48.114;11.532;2023-03-24T10:22:51;2.90;;;2.20;;
15679;SDS011;15488;48.114;11.532;2023-03-24T10:25:25;3.30;;;2.50;;
15679;SDS011;15488;48.114;11.532;2023-03-24T10:28:01;2.90;;;2.57;;
15679;SDS011;15488;48.114;11.532;2023-03-24T10:30:34;2.90;;;2.60;;
15679;SDS011;15488;48.114;11.532;2023-03-24T10:33:07;2.43;;;2.23;;
15679;SDS011;15488;48.114;11.532;2023-03-24T10:35:38;2.50;;;2.00;;
15679;SDS011;15488;48.114;11.532;2023-03-24T10:38:12;2.80;;;2.20;;
15679;SDS011;15488;48.114;11.532;2023-03-24T10:40:42;3.40;;;2.73;;
15679;SDS011;15488;48.114;11.532;2023-03-24T10:43:12;3.20;;;2.40;;
15679;SDS011;15488;48.114;11.532;2023-03-24T10:45:42;2.43;;;2.20;;
15679;SDS011;15488;48.114;11.532;2023-03-24T10:48:11;3.50;;;2.40;;
15679;SDS011;15488;48.114;11.532;2023-03-24T10:50:42;3.00;;;2.50;;
15679;SDS011;15488;48.114;11.532;2023-03-24T10:53:17;2.60;;;2.40;;
15679;SDS011;15488;48.114;11.532;2023-03-24T10:55:46;3.43;;;3.13;;
15679;SDS011;15488;48.114;11.532;2023-03-24T10:58:18;2.40;;;2.20;;
15679;SDS011;15488;48.114;11.532;2023-03-24T11:00:49;2.23;;;2.03;;
15679;SDS011;15488;48.114;11.532;2023-03-24T11:03:20;1.70;;;1.60;;
15679;SDS011;15488;48.114;11.532;2023-03-24T11:05:58;1.70;;;1.60;;
15679;SDS011;15488;48.114;11.532;2023-03-24T11:08:27;1.53;;;1.40;;
15679;SDS011;15488;48.114;11.532;2023-03-24T11:11:00;1.53;;;1.43;;
15679;SDS011;15488;48.114;11.532;2023-03-24T11:13:38;1.70;;;1.60;;
15679;SDS011;15488;48.114;11.532;2023-03-24T11:16:09;1.90;;;1.70;;
15679;SDS011;15488;48.114;11.532;2023-03-24T11:18:42;1.60;;;1.50;;
15679;SDS011;15488;48.114;11.532;2023-03-24T11:21:22;1.70;;;1.50;;
15679;SDS011;15488;48.114;11.532;2023-03-24T11:23:52;1.53;;;1.43;;
15679;SDS011;15488;48.114;11.532;2023-03-24T11:26:26;3.43;;;1.63;;
15679;SDS011;15488;48.114;11.532;2023-03-24T11:28:56;1.80;;;1.70;;
15679;SDS011;15488;48.114;11.532;2023-03-24T11:31:27;2.10;;;1.67;;
15679;SDS011;15488;48.114;11.532;2023-03-24T11:33:57;1.70;;;1.60;;
15679;SDS011;15488;48.114;11.532;2023-03-24T11:36:45;1.80;;;1.70;;
15679;SDS011;15488;48.114;11.532;2023-03-24T11:39:15;1.67;;;1.53;;
15679;SDS011;15488;48.114;11.532;2023-03-24T11:41:59;1.60;;;1.50;;
15679;SDS011;15488;48.114;11.532;2023-03-24T11:44:42;1.40;;;1.30;;
15679;SDS011;15488;48.114;11.532;2023-03-24T11:47:21;1.93;;;1.60;;
15679;SDS011;15488;48.114;11.532;2023-03-24T11:49:56;1.80;;;1.70;;
15679;SDS011;15488;48.114;11.532;2023-03-24T11:52:41;1.60;;;1.50;;
15679;SDS011;15488;48.114;11.532;2023-03-24T11:55:13;2.57;;;1.90;;
15679;SDS011;15488;48.114;11.532;2023-03-24T11:57:45;3.77;;;1.60;;
15679;SDS011;15488;48.114;11.532;2023-03-24T12:00:19;2.20;;;2.00;;
15679;SDS011;15488;48.114;11.532;2023-03-24T12:05:43;2.03;;;1.53;;
15679;SDS011;15488;48.114;11.532;2023-03-24T12:08:19;1.90;;;1.50;;
15679;SDS011;15488;48.114;11.532;2023-03-24T12:10:55;1.53;;;1.43;;
15679;SDS011;15488;48.114;11.532;2023-03-24T12:13:32;2.17;;;1.63;;
15679;SDS011;15488;48.114;11.532;2023-03-24T12:16:08;1.67;;;1.50;;
15679;SDS011;15488;48.114;11.532;2023-03-24T12:18:48;1.40;;;1.30;;
15679;SDS011;15488;48.114;11.532;2023-03-24T12:21:26;1.40;;;1.30;;
15679;SDS011;15488;48.114;11.532;2023-03-24T12:24:12;1.87;;;1.60;;
15679;SDS011;15488;48.114;11.532;2023-03-24T12:26:47;2.47;;;1.50;;
15679;SDS011;15488;48.114;11.532;2023-03-24T12:29:26;2.00;;;1.67;;
15679;SDS011;15488;48.114;11.532;2023-03-24T12:32:13;1.50;;;1.40;;
15679;SDS011;15488;48.114;11.532;2023-03-24T12:37:43;2.00;;;1.90;;
15679;SDS011;15488;48.114;11.532;2023-03-24T12:43:14;2.17;;;1.67;;
15679;SDS011;15488;48.114;11.532;2023-03-24T12:45:52;2.73;;;2.00;;
15679;SDS011;15488;48.114;11.532;2023-03-24T12:48:35;2.43;;;2.20;;
15679;SDS011;15488;48.114;11.532;2023-03-24T12:51:15;1.57;;;1.47;;
15679;SDS011;15488;48.114;11.532;2023-03-24T12:53:52;1.83;;;1.60;;
15679;SDS011;15488;48.114;11.532;2023-03-24T12:56:31;1.57;;;1.47;;
15679;SDS011;15488;48.114;11.532;2023-03-24T12:59:08;1.90;;;1.70;;
15679;SDS011;15488;48.114;11.532;2023-03-24T13:01:40;1.90;;;1.77;;
15679;SDS011;15488;48.114;11.532;2023-03-24T13:04:12;1.70;;;1.57;;
15679;SDS011;15488;48.114;11.532;2023-03-24T13:06:46;1.70;;;1.60;;
15679;SDS011;15488;48.114;11.532;2023-03-24T13:09:18;1.70;;;1.60;;
15679;SDS011;15488;48.114;11.532;2023-03-24T13:11:59;1.67;;;1.57;;
15679;SDS011;15488;48.114;11.532;2023-03-24T13:14:30;1.60;;;1.50;;
15679;SDS011;15488;48.114;11.532;2023-03-24T13:17:04;2.20;;;1.80;;
15679;SDS011;15488;48.114;11.532;2023-03-24T13:19:38;1.70;;;1.60;;
15679;SDS011;15488;48.114;11.532;2023-03-24T13:22:08;2.40;;;1.70;;
15679;SDS011;15488;48.114;11.532;2023-03-24T13:24:40;1.80;;;1.70;;
15679;SDS011;15488;48.114;11.532;2023-03-24T13:27:10;2.17;;;1.83;;
15679;SDS011;15488;48.114;11.532;2023-03-24T13:32:45;1.80;;;1.60;;
15679;SDS011;15488;48.114;11.532;2023-03-24T13:35:18;3.03;;;1.77;;
15679;SDS011;15488;48.114;11.532;2023-03-24T13:37:53;1.87;;;1.30;;
15679;SDS011;15488;48.114;11.532;2023-03-24T13:40:26;1.33;;;0.97;;
15679;SDS011;15488;48.114;11.532;2023-03-24T13:42:58;1.10;;;0.93;;
15679;SDS011;15488;48.114;11.532;2023-03-24T13:45:35;1.00;;;0.97;;
15679;SDS011;15488;48.114;11.532;2023-03-24T13:51:02;1.60;;;0.90;;
15679;SDS011;15488;48.114;11.532;2023-03-24T13:53:37;0.80;;;0.80;;
15679;SDS011;15488;48.114;11.532;2023-03-24T13:56:09;0.60;;;0.60;;
15679;SDS011;15488;48.114;11.532;2023-03-24T13:59:05;0.87;;;0.70;;
15679;SDS011;15488;48.114;11.532;2023-03-24T14:01:35;0.77;;;0.70;;
15679;SDS011;15488;48.114;11.532;2023-03-24T14:04:17;0.80;;;0.70;;
15679;SDS011;15488;48.114;11.532;2023-03-24T14:06:48;1.00;;;1.00;;
15679;SDS011;15488;48.114;11.532;2023-03-24T14:09:20;0.90;;;0.90;;
15679;SDS011;15488;48.114;11.532;2023-03-24T14:12:06;1.50;;;0.90;;
15679;SDS011;15488;48.114;11.532;2023-03-24T14:17:39;1.20;;;1.10;;
15679;SDS011;15488;48.114;11.532;2023-03-24T14:20:12;1.10;;;0.90;;
15679;SDS011;15488;48.114;11.532;2023-03-24T14:22:54;1.57;;;0.90;;
15679;SDS011;15488;48.114;11.532;2023-03-24T14:25:23;1.00;;;0.90;;
15679;SDS011;15488;48.114;11.532;2023-03-24T14:27:53;1.10;;;1.00;;
15679;SDS011;15488;48.114;11.532;2023-03-24T14:30:34;2.63;;;1.10;;
15679;SDS011;15488;48.114;11.532;2023-03-24T14:33:04;1.20;;;1.10;;
15679;SDS011;15488;48.114;11.532;2023-03-24T14:35:47;1.60;;;1.50;;
15679;SDS011;15488;48.114;11.532;2023-03-24T14:38:22;1.80;;;1.57;;
15679;SDS011;15488;48.114;11.532;2023-03-24T14:40:55;1.83;;;0.90;;
15679;SDS011;15488;48.114;11.532;2023-03-24T14:43:24;1.13;;;1.00;;
15679;SDS011;15488;48.114;11.532;2023-03-24T14:45:57;1.03;;;0.87;;
15679;SDS011;15488;48.114;11.532;2023-03-24T14:48:27;1.60;;;1.30;;
15679;SDS011;15488;48.114;11.532;2023-03-24T14:51:28;0.90;;;0.70;;
15679;SDS011;15488;48.114;11.532;2023-03-24T14:54:02;0.80;;;0.80;;
15679;SDS011;15488;48.114;11.532;2023-03-24T14:56:32;0.70;;;0.63;;
15679;SDS011;15488;48.114;11.532;2023-03-24T14:59:04;0.90;;;0.90;;
15679;SDS011;15488;48.114;11.532;2023-03-24T15:01:37;0.70;;;0.70;;
15679;SDS011;15488;48.114;11.532;2023-03-24T15:04:13;2.23;;;0.90;;
15679;SDS011;15488;48.114;11.532;2023-03-24T15:06:44;0.70;;;0.70;;
15679;SDS011;15488;48.114;11.532;2023-03-24T15:09:13;1.10;;;1.00;;
15679;SDS011;15488;48.114;11.532;2023-03-24T15:11:42;1.30;;;1.10;;
15679;SDS011;15488;48.114;11.532;2023-03-24T15:14:18;1.20;;;1.10;;
15679;SDS011;15488;48.114;11.532;2023-03-24T15:17:04;1.30;;;1.10;;
15679;SDS011;15488;48.114;11.532;2023-03-24T15:19:45;0.70;;;0.63;;
15679;SDS011;15488;48.114;11.532;2023-03-24T15:22:16;0.90;;;0.90;;
15679;SDS011;15488;48.114;11.532;2023-03-24T15:24:45;0.77;;;0.60;;
15679;SDS011;15488;48.114;11.532;2023-03-24T15:27:18;1.77;;;0.70;;
15679;SDS011;15488;48.114;11.532;2023-03-24T15:29:54;0.77;;;0.63;;
15679;SDS011;15488;48.114;11.532;2023-03-24T15:32:25;0.60;;;0.60;;